Time;durP1;ratioP1;P1;durP2;ratioP2;P2;SDS_P1;SDS_P2;PMS_P1;PMS_P2;Temp;Humidity;BMP_temperature;BMP_pressure;BME280_temperature;BME280_humidity;BME280_pressure;Samples;Min_cycle;Max_cycle;Signal;HPM_P1;HPM_P2
2021/04/09 00:00:54;;;;;;;14.73;9.40;;;;;;;-0.26;72.23;100002.33;1697650;84;21187;-61
2021/04/09 00:03:22;;;;;;;14.80;9.65;;;;;;;-0.30;72.42;100005.08;1698008;84;21167;-60
2021/04/09 00:05:50;;;;;;;15.75;9.48;;;;;;;-0.29;72.46;100006.74;1705465;84;21191;-60
2021/04/09 00:08:18;;;;;;;13.10;9.23;;;;;;;-0.28;72.49;100013.72;1696477;83;21175;-60
2021/04/09 00:10:45;;;;;;;13.43;9.18;;;;;;;-0.26;72.44;100000.16;1695170;84;21183;-60
2021/04/09 00:13:13;;;;;;;14.70;8.58;;;;;;;-0.26;72.46;100015.71;1693759;83;21303;-60
2021/04/09 00:15:40;;;;;;;13.78;9.00;;;;;;;-0.26;72.44;100011.70;1685893;84;21335;-60
2021/04/09 00:18:08;;;;;;;14.13;9.30;;;;;;;-0.26;72.52;100021.56;1698560;83;21595;-60
2021/04/09 00:20:35;;;;;;;13.35;9.15;;;;;;;-0.31;72.63;100016.80;1693279;83;21184;-60
2021/04/09 00:23:03;;;;;;;16.97;10.15;;;;;;;-0.30;72.73;100020.30;1697421;84;21163;-60
2021/04/09 00:25:31;;;;;;;13.45;8.13;;;;;;;-0.32;72.76;100028.51;1696876;84;21181;-60
2021/04/09 00:27:59;;;;;;;12.05;8.75;;;;;;;-0.37;73.00;100031.46;1697237;84;21231;-59
2021/04/09 00:30:27;;;;;;;14.10;9.60;;;;;;;-0.36;73.16;100028.61;1697265;84;21170;-59
2021/04/09 00:32:55;;;;;;;15.78;10.00;;;;;;;-0.40;73.33;100030.52;1697521;83;21151;-59
2021/04/09 00:35:23;;;;;;;14.50;8.98;;;;;;;-0.39;73.42;100040.20;1696752;84;21159;-59
2021/04/09 00:37:51;;;;;;;13.80;10.03;;;;;;;-0.40;73.50;100037.20;1697078;84;21296;-59
2021/04/09 00:40:21;;;;;;;17.17;10.32;;;;;;;-0.39;73.37;100041.54;1698317;84;21133;-59
2021/04/09 00:42:48;;;;;;;15.45;10.28;;;;;;;-0.42;73.48;100047.25;1691293;82;21748;-59
2021/04/09 00:45:18;;;;;;;14.75;10.38;;;;;;;-0.41;73.49;100051.08;1696735;84;21310;-59
2021/04/09 00:47:46;;;;;;;14.95;9.35;;;;;;;-0.43;73.50;100046.95;1696174;84;21236;-59
2021/04/09 00:50:14;;;;;;;13.18;9.90;;;;;;;-0.41;73.40;100051.59;1694251;84;21166;-59
2021/04/09 00:52:44;;;;;;;15.83;9.78;;;;;;;-0.41;73.35;100049.75;1696353;84;21196;-59
2021/04/09 00:55:13;;;;;;;14.38;9.63;;;;;;;-0.45;73.46;100061.02;1700012;84;21143;-59
2021/04/09 00:57:40;;;;;;;18.05;10.43;;;;;;;-0.45;73.49;100055.66;1680938;84;21178;-59
2021/04/09 01:00:11;;;;;;;15.83;10.00;;;;;;;-0.51;73.60;100052.77;1705673;84;21304;-59
2021/04/09 01:02:38;;;;;;;17.75;10.10;;;;;;;-0.52;73.64;100063.13;1708118;81;21165;-59
2021/04/09 01:05:10;;;;;;;16.70;9.98;;;;;;;-0.55;73.66;100060.84;1692208;84;21149;-59
2021/04/09 01:07:39;;;;;;;15.38;10.23;;;;;;;-0.60;73.72;100059.75;1705850;82;21217;-59
2021/04/09 01:10:08;;;;;;;15.32;9.70;;;;;;;-0.63;73.87;100063.64;1702651;83;21178;-59
2021/04/09 01:12:35;;;;;;;14.87;9.33;;;;;;;-0.67;74.18;100065.04;1635243;87;21411;-59
2021/04/09 01:15:05;;;;;;;17.27;10.43;;;;;;;-0.69;74.38;100064.41;1670554;86;21199;-58
2021/04/09 01:17:45;;;;;;;16.02;10.38;;;;;;;-0.74;74.78;100072.67;1668028;84;21172;-59
2021/04/09 01:20:47;;;;;;;14.78;9.40;;;;;;;-0.73;74.93;100077.84;1669986;85;21583;-60
2021/04/09 01:23:46;;;;;;;12.98;9.58;;;;;;;-0.78;75.14;100074.09;1650618;85;21201;-60
2021/04/09 01:26:30;;;;;;;16.62;10.08;;;;;;;-0.80;75.36;100078.79;1710832;83;21516;-60
2021/04/09 01:29:46;;;;;;;15.00;9.50;;;;;;;-0.84;75.79;100080.19;1701307;84;21174;-60
2021/04/09 01:32:16;;;;;;;16.20;10.93;;;;;;;-0.87;75.87;100084.08;1661748;85;21154;-60
2021/04/09 01:34:50;;;;;;;13.53;9.43;;;;;;;-0.90;76.18;100091.14;1699401;84;21191;-60
2021/04/09 01:37:28;;;;;;;15.53;10.13;;;;;;;-0.87;76.05;100085.91;1683902;84;21170;-60
2021/04/09 01:40:04;;;;;;;14.87;9.55;;;;;;;-0.87;76.12;100098.77;1687674;84;21621;-59
2021/04/09 01:42:34;;;;;;;14.85;9.95;;;;;;;-0.88;75.93;100097.61;1693790;84;21318;-59
2021/04/09 01:45:03;;;;;;;15.15;10.63;;;;;;;-0.90;75.90;100105.84;1687374;84;21197;-60
2021/04/09 01:47:31;;;;;;;14.93;10.43;;;;;;;-0.90;75.98;100107.17;1702758;84;22302;-60
2021/04/09 01:50:02;;;;;;;15.75;10.50;;;;;;;-0.89;76.17;100105.33;1700897;83;21599;-60
2021/04/09 01:52:32;;;;;;;16.07;11.18;;;;;;;-0.87;76.05;100111.30;1697891;84;21163;-60
2021/04/09 01:55:01;;;;;;;15.25;9.95;;;;;;;-0.87;75.82;100110.80;1695763;84;21171;-60
2021/04/09 01:57:29;;;;;;;14.15;10.30;;;;;;;-0.91;75.69;100112.69;1707878;84;21287;-60
2021/04/09 01:59:57;;;;;;;14.80;9.38;;;;;;;-0.94;75.79;100114.41;1687746;84;21656;-60
2021/04/09 02:02:25;;;;;;;15.78;10.35;;;;;;;-0.97;75.97;100119.63;1687511;82;21297;-60
2021/04/09 02:04:52;;;;;;;15.40;10.80;;;;;;;-0.99;76.27;100116.84;1701477;84;21146;-60
2021/04/09 02:07:20;;;;;;;15.03;11.00;;;;;;;-1.01;76.42;100125.03;1683455;84;21154;-60
2021/04/09 02:09:48;;;;;;;15.75;10.32;;;;;;;-1.00;76.69;100129.37;1700703;84;21165;-59
2021/04/09 02:12:17;;;;;;;17.07;10.93;;;;;;;-0.99;76.89;100132.88;1684715;85;21184;-60
2021/04/09 02:14:45;;;;;;;17.20;10.50;;;;;;;-0.97;76.97;100133.50;1694635;84;21122;-60
2021/04/09 02:17:13;;;;;;;14.53;10.90;;;;;;;-0.98;77.29;100138.02;1698633;84;21166;-60
2021/04/09 02:19:42;;;;;;;17.57;11.03;;;;;;;-0.93;77.37;100133.45;1703816;84;21162;-59
2021/04/09 02:22:10;;;;;;;15.60;10.82;;;;;;;-0.91;77.54;100139.42;1703288;84;21150;-60
2021/04/09 02:24:38;;;;;;;16.45;11.25;;;;;;;-0.85;77.56;100137.36;1686937;84;21170;-60
2021/04/09 02:27:07;;;;;;;17.42;11.38;;;;;;;-0.82;77.48;100141.81;1697117;84;21174;-60
2021/04/09 02:29:35;;;;;;;16.85;11.88;;;;;;;-0.76;77.41;100142.39;1703316;84;21132;-59
2021/04/09 02:32:03;;;;;;;17.10;12.03;;;;;;;-0.73;77.29;100139.33;1699871;84;21168;-59
2021/04/09 02:34:31;;;;;;;14.60;10.68;;;;;;;-0.72;77.19;100143.67;1704355;84;21627;-60
2021/04/09 02:36:58;;;;;;;16.00;11.48;;;;;;;-0.72;77.02;100142.84;1704829;84;21150;-60
2021/04/09 02:39:26;;;;;;;17.55;12.25;;;;;;;-0.73;76.94;100150.02;1689858;84;21123;-60
2021/04/09 02:42:00;;;;;;;15.75;11.40;;;;;;;-0.70;76.83;100152.82;1693964;84;21182;-60
2021/04/09 02:44:28;;;;;;;17.23;11.95;;;;;;;-0.70;76.86;100153.66;1681433;84;21166;-60
2021/04/09 02:47:15;;;;;;;19.00;12.37;;;;;;;-0.72;76.81;100155.70;1701510;84;21122;-60
2021/04/09 02:49:47;;;;;;;18.77;13.62;;;;;;;-0.69;76.77;100161.17;1686354;84;21165;-60
2021/04/09 02:52:28;;;;;;;20.90;13.55;;;;;;;-0.67;76.77;100167.14;1684207;84;21199;-60
2021/04/09 02:54:59;;;;;;;18.95;12.58;;;;;;;-0.70;76.87;100164.84;1698176;84;21721;-60
2021/04/09 02:57:28;;;;;;;20.20;13.08;;;;;;;-0.72;76.83;100169.06;1701296;84;21123;-60
2021/04/09 02:59:56;;;;;;;19.82;13.50;;;;;;;-0.72;77.01;100174.42;1692470;84;21371;-59
2021/04/09 03:02:24;;;;;;;24.07;13.75;;;;;;;-0.75;77.16;100173.46;1687577;84;21189;-60
2021/04/09 03:04:51;;;;;;;22.82;14.63;;;;;;;-0.75;77.14;100176.64;1685724;84;21297;-59
2021/04/09 03:07:20;;;;;;;17.48;12.73;;;;;;;-0.77;77.25;100176.81;1701454;84;21174;-58
2021/04/09 03:09:48;;;;;;;19.60;13.40;;;;;;;-0.74;77.40;100182.28;1691196;83;21170;-59
2021/04/09 03:12:18;;;;;;;18.67;13.43;;;;;;;-0.73;77.29;100187.45;1678264;84;21550;-58
2021/04/09 03:14:48;;;;;;;15.95;11.75;;;;;;;-0.71;77.33;100188.08;1700894;84;21760;-59
2021/04/09 03:17:28;;;;;;;19.00;12.35;;;;;;;-0.68;77.19;100197.09;1688752;82;21288;-59
2021/04/09 03:19:56;;;;;;;21.97;13.25;;;;;;;-0.75;77.47;100197.52;1700268;84;21165;-59
2021/04/09 03:22:24;;;;;;;19.92;13.90;;;;;;;-0.75;77.68;100200.20;1695688;84;21121;-58
2021/04/09 03:24:51;;;;;;;20.12;14.05;;;;;;;-0.76;77.68;100201.70;1707595;84;21177;-59
2021/04/09 03:27:19;;;;;;;20.88;13.62;;;;;;;-0.74;77.66;100207.67;1700933;82;21550;-59
2021/04/09 03:29:46;;;;;;;19.00;13.43;;;;;;;-0.71;77.70;100212.14;1695879;84;21184;-59
2021/04/09 03:32:14;;;;;;;21.23;14.38;;;;;;;-0.65;77.68;100218.09;1687705;84;21158;-59
2021/04/09 03:34:42;;;;;;;19.00;14.47;;;;;;;-0.68;77.98;100220.32;1696212;84;21167;-59
2021/04/09 03:37:10;;;;;;;20.20;13.93;;;;;;;-0.65;78.08;100218.60;1702387;84;21159;-59
2021/04/09 03:39:37;;;;;;;19.55;14.25;;;;;;;-0.57;78.15;100224.65;1702395;84;21558;-59
2021/04/09 03:42:06;;;;;;;21.35;14.70;;;;;;;-0.57;78.40;100224.65;1693377;84;21165;-59
2021/04/09 03:44:33;;;;;;;19.27;14.65;;;;;;;-0.56;78.56;100227.66;1685023;84;21205;-59
2021/04/09 03:47:02;;;;;;;19.10;14.25;;;;;;;-0.46;78.38;100234.56;1700407;84;21609;-59
2021/04/09 03:49:30;;;;;;;20.08;14.70;;;;;;;-0.40;78.35;100239.98;1688845;84;21214;-59
2021/04/09 03:51:57;;;;;;;22.00;15.18;;;;;;;-0.40;78.65;100239.16;1691750;84;21150;-59
2021/04/09 03:54:25;;;;;;;19.92;14.47;;;;;;;-0.36;79.00;100247.95;1689120;82;21621;-59
2021/04/09 03:56:52;;;;;;;20.60;14.73;;;;;;;-0.22;78.61;100250.27;1703644;84;21195;-59
2021/04/09 03:59:20;;;;;;;19.07;14.40;;;;;;;-0.19;78.44;100261.92;1695065;84;21244;-59
2021/04/09 04:01:48;;;;;;;19.57;14.78;;;;;;;-0.22;78.42;100258.29;1698288;84;21145;-59
2021/04/09 04:04:16;;;;;;;19.70;14.47;;;;;;;-0.19;78.26;100257.91;1698301;84;21186;-59
2021/04/09 04:06:44;;;;;;;19.02;13.88;;;;;;;-0.08;78.03;100265.44;1708509;84;21284;-59
2021/04/09 04:09:11;;;;;;;20.52;14.05;;;;;;;-0.09;78.08;100265.11;1697020;84;21257;-59
2021/04/09 04:11:40;;;;;;;20.77;14.35;;;;;;;-0.12;78.18;100274.36;1703326;84;21122;-59
2021/04/09 04:14:08;;;;;;;19.52;14.73;;;;;;;-0.10;78.04;100278.16;1694842;84;21720;-59
2021/04/09 04:16:35;;;;;;;21.65;15.40;;;;;;;-0.10;77.93;100284.85;1708072;84;21173;-59
2021/04/09 04:19:03;;;;;;;21.95;15.40;;;;;;;-0.15;78.19;100290.80;1706112;82;21326;-59
2021/04/09 04:21:30;;;;;;;17.73;13.53;;;;;;;-0.14;78.19;100290.26;1697398;84;21174;-59
2021/04/09 04:23:59;;;;;;;19.23;14.10;;;;;;;-0.02;77.84;100292.77;1699911;82;21207;-59
2021/04/09 04:26:26;;;;;;;23.83;16.50;;;;;;;-0.03;77.73;100293.78;1702037;83;21158;-59
2021/04/09 04:28:54;;;;;;;20.60;15.32;;;;;;;-0.14;77.92;100299.13;1702878;84;21493;-59
2021/04/09 04:31:22;;;;;;;21.90;15.35;;;;;;;-0.15;78.05;100298.83;1703335;84;21169;-59
2021/04/09 04:33:49;;;;;;;20.52;15.65;;;;;;;-0.08;77.88;100300.23;1692444;82;21204;-61
2021/04/09 04:36:18;;;;;;;23.52;17.45;;;;;;;-0.03;78.01;100307.16;1702322;84;21276;-61
2021/04/09 04:38:46;;;;;;;23.70;17.02;;;;;;;-0.04;78.08;100307.67;1706280;84;21671;-61
2021/04/09 04:41:16;;;;;;;20.15;15.70;;;;;;;-0.09;77.94;100296.72;1697260;84;21146;-61
2021/04/09 04:43:44;;;;;;;21.27;16.10;;;;;;;0.10;77.65;100322.55;1696062;84;21165;-61
2021/04/09 04:46:11;;;;;;;24.27;16.48;;;;;;;0.09;77.67;100323.06;1691544;84;21189;-61
2021/04/09 04:48:39;;;;;;;26.15;17.05;;;;;;;0.11;77.82;100326.36;1698651;84;21652;-61
2021/04/09 04:51:07;;;;;;;24.35;17.20;;;;;;;0.23;77.77;100324.85;1701519;82;21183;-61
2021/04/09 04:53:35;;;;;;;27.22;17.45;;;;;;;0.40;77.61;100332.95;1705403;84;21211;-61
2021/04/09 04:56:03;;;;;;;23.02;16.42;;;;;;;0.50;77.58;100333.45;1700289;84;21155;-61
2021/04/09 04:58:30;;;;;;;23.52;16.75;;;;;;;0.60;77.55;100337.67;1706978;84;21162;-61
2021/04/09 05:01:00;;;;;;;24.25;16.82;;;;;;;0.65;77.22;100335.23;1699045;84;21188;-59
2021/04/09 05:03:27;;;;;;;24.92;16.95;;;;;;;0.80;76.95;100344.02;1685795;82;21196;-59
2021/04/09 05:05:55;;;;;;;20.88;15.28;;;;;;;1.08;76.94;100340.83;1701591;84;21569;-60
2021/04/09 05:08:24;;;;;;;22.02;15.72;;;;;;;1.35;76.67;100344.50;1708362;84;21217;-60
2021/04/09 05:10:52;;;;;;;24.92;16.52;;;;;;;1.59;76.50;100341.36;1699379;84;21150;-59
2021/04/09 05:13:19;;;;;;;21.95;16.20;;;;;;;1.87;76.16;100342.61;1707431;84;21581;-59
2021/04/09 05:15:46;;;;;;;22.75;16.07;;;;;;;2.18;75.50;100346.94;1704831;84;21609;-59
2021/04/09 05:18:14;;;;;;;25.35;18.20;;;;;;;2.45;74.18;100351.84;1699119;82;21320;-59
2021/04/09 05:20:42;;;;;;;30.75;20.77;;;;;;;2.59;73.82;100348.69;1695515;84;21638;-59
2021/04/09 05:23:09;;;;;;;27.00;20.00;;;;;;;2.74;73.78;100355.50;1697333;84;21181;-59
2021/04/09 05:25:37;;;;;;;25.85;19.00;;;;;;;2.83;73.04;100355.63;1702648;84;21321;-59
2021/04/09 05:28:05;;;;;;;20.65;14.73;;;;;;;2.89;72.79;100360.69;1705503;84;21678;-59
2021/04/09 05:30:33;;;;;;;19.95;14.20;;;;;;;2.96;71.99;100361.52;1688755;84;21194;-59
2021/04/09 05:33:01;;;;;;;19.10;15.08;;;;;;;2.98;71.94;100358.09;1704270;82;21166;-60
2021/04/09 05:35:28;;;;;;;17.17;13.53;;;;;;;2.90;71.57;100367.73;1698906;84;21589;-60
2021/04/09 05:37:55;;;;;;;18.32;14.18;;;;;;;2.81;72.05;100376.50;1701385;82;21599;-60
2021/04/09 05:40:24;;;;;;;16.87;12.68;;;;;;;2.79;72.35;100367.83;1708003;84;21181;-60
2021/04/09 05:42:59;;;;;;;18.67;14.60;;;;;;;2.88;72.07;100372.47;1705188;82;21149;-58
2021/04/09 05:45:27;;;;;;;16.97;13.38;;;;;;;2.96;71.72;100372.27;1700942;84;21324;-58
2021/04/09 05:47:58;;;;;;;18.35;13.65;;;;;;;3.03;71.95;100378.98;1713930;81;21201;-58
2021/04/09 05:50:23;;;;;;;17.65;13.43;;;;;;;3.04;71.41;100377.97;1700152;82;21176;-58
2021/04/09 05:52:51;;;;;;;19.07;14.68;;;;;;;3.01;71.58;100380.02;1701063;82;21187;-60
2021/04/09 05:55:18;;;;;;;18.10;14.58;;;;;;;2.96;71.89;100387.06;1687808;84;21205;-60
2021/04/09 05:57:46;;;;;;;18.40;12.65;;;;;;;3.09;71.84;100379.50;1699703;84;21622;-60
2021/04/09 06:00:14;;;;;;;17.65;13.30;;;;;;;3.29;71.49;100385.72;1691088;84;21586;-60
2021/04/09 06:02:42;;;;;;;21.12;14.80;;;;;;;3.47;71.26;100389.94;1685288;84;21170;-60
2021/04/09 06:05:11;;;;;;;17.65;14.33;;;;;;;3.74;71.15;100387.48;1697222;84;21169;-60
2021/04/09 06:07:39;;;;;;;19.55;14.83;;;;;;;4.05;70.71;100396.17;1707609;84;21231;-60
2021/04/09 06:10:08;;;;;;;18.92;13.45;;;;;;;4.32;69.66;100386.91;1685110;83;21181;-60
2021/04/09 06:12:39;;;;;;;19.30;13.38;;;;;;;4.57;68.20;100391.58;1685552;84;21684;-60
2021/04/09 06:15:10;;;;;;;15.30;12.30;;;;;;;4.82;67.18;100388.38;1700757;84;21182;-59
2021/04/09 06:17:37;;;;;;;15.60;11.75;;;;;;;5.11;66.04;100395.83;1703227;84;21618;-59
2021/04/09 06:20:06;;;;;;;16.45;13.45;;;;;;;5.20;65.57;100394.53;1723647;82;21203;-58
2021/04/09 06:22:34;;;;;;;17.75;13.78;;;;;;;5.28;65.20;100391.53;1698670;84;21142;-58
2021/04/09 06:25:06;;;;;;;16.07;12.82;;;;;;;5.46;65.62;100393.44;1701141;84;21573;-58
2021/04/09 06:27:34;;;;;;;16.75;12.88;;;;;;;5.69;63.94;100390.93;1693127;82;21145;-59
2021/04/09 06:30:02;;;;;;;20.95;13.60;;;;;;;5.88;64.08;100394.51;1684985;84;21178;-60
2021/04/09 06:32:30;;;;;;;17.25;13.53;;;;;;;6.22;62.78;100393.05;1708746;81;21181;-59
2021/04/09 06:34:58;;;;;;;17.45;13.83;;;;;;;6.27;61.67;100400.76;1665107;84;21200;-59
2021/04/09 06:37:26;;;;;;;19.48;14.13;;;;;;;6.37;62.59;100402.95;1661939;86;21176;-59
2021/04/09 06:39:54;;;;;;;17.35;13.22;;;;;;;6.65;61.90;100401.00;1670240;86;21197;-59
2021/04/09 06:42:21;;;;;;;18.80;14.38;;;;;;;6.94;61.76;100402.86;1660722;85;21213;-59
2021/04/09 06:44:49;;;;;;;17.37;14.80;;;;;;;7.18;60.18;100404.55;1666387;86;21161;-59
2021/04/09 06:47:18;;;;;;;17.15;13.70;;;;;;;7.41;59.95;100403.20;1646355;86;21150;-58
2021/04/09 06:49:45;;;;;;;16.77;14.03;;;;;;;7.82;59.06;100400.91;1662528;84;21759;-59
2021/04/09 06:52:14;;;;;;;18.37;13.78;;;;;;;8.25;56.58;100405.06;1642977;86;21586;-59
2021/04/09 06:54:43;;;;;;;18.90;15.15;;;;;;;8.69;56.68;100406.20;1636300;86;21191;-59
2021/04/09 06:57:11;;;;;;;17.15;15.08;;;;;;;8.95;54.35;100406.44;1647420;86;21577;-59
2021/04/09 06:59:43;;;;;;;18.00;13.20;;;;;;;9.10;54.08;100407.77;1647140;87;21209;-59
2021/04/09 07:02:14;;;;;;;17.02;14.47;;;;;;;9.10;54.01;100411.84;1657478;86;21182;-59
2021/04/09 07:04:45;;;;;;;18.67;14.80;;;;;;;8.98;53.37;100414.62;1685296;85;21590;-58
2021/04/09 07:07:16;;;;;;;19.98;15.10;;;;;;;8.78;54.14;100418.34;1673846;85;21189;-59
2021/04/09 07:09:44;;;;;;;17.00;14.38;;;;;;;8.72;53.86;100417.93;1657166;86;21153;-59
2021/04/09 07:12:30;;;;;;;15.58;13.38;;;;;;;8.59;54.83;100419.59;1648663;85;21174;-59
2021/04/09 07:15:02;;;;;;;17.77;14.43;;;;;;;8.77;54.83;100418.04;1656322;86;21755;-59
2021/04/09 07:17:47;;;;;;;15.25;13.28;;;;;;;9.07;53.86;100425.92;1685125;85;21140;-59
2021/04/09 07:20:24;;;;;;;15.98;13.00;;;;;;;9.22;53.55;100424.80;1656065;86;21207;-59
2021/04/09 07:22:56;;;;;;;;;;;;;;;9.53;53.30;100422.06;1654442;86;21177;-59
2021/04/09 07:25:28;;;;;;;13.85;12.05;;;;;;;9.89;51.50;100419.60;1658064;86;20256;-59
2021/04/09 07:28:20;;;;;;;12.95;11.50;;;;;;;9.82;49.24;100423.04;1635614;86;21375;-60
2021/04/09 07:30:54;;;;;;;13.18;10.93;;;;;;;9.70;49.07;100416.89;1664927;85;21215;-59
2021/04/09 07:33:26;;;;;;;16.10;11.55;;;;;;;9.70;49.72;100416.06;1665908;84;21335;-59
2021/04/09 07:36:00;;;;;;;14.05;11.35;;;;;;;10.01;48.42;100423.58;1661282;86;21311;-59
2021/04/09 07:38:35;;;;;;;14.68;11.25;;;;;;;10.38;48.55;100417.82;1654092;86;21189;-59
2021/04/09 07:41:09;;;;;;;13.40;11.15;;;;;;;10.69;46.49;100416.83;1660421;86;21207;-59
2021/04/09 07:43:42;;;;;;;10.20;8.18;;;;;;;10.69;45.61;100419.02;1665867;84;21193;-59
2021/04/09 07:46:24;;;;;;;11.75;9.50;;;;;;;10.52;45.44;100421.54;1669946;85;21185;-58
2021/04/09 07:49:02;;;;;;;13.10;9.98;;;;;;;10.58;46.22;100423.23;1664201;86;21149;-60
2021/04/09 07:51:31;;;;;;;11.18;8.43;;;;;;;10.72;45.38;100424.48;1669899;84;21189;-60
2021/04/09 07:54:09;;;;;;;9.33;7.75;;;;;;;10.58;44.03;100427.31;1665447;86;21197;-60
2021/04/09 07:56:46;;;;;;;10.40;8.28;;;;;;;10.29;42.00;100426.16;1664590;86;21310;-59
2021/04/09 07:59:13;;;;;;;10.72;7.37;;;;;;;10.07;43.03;100423.92;1665388;85;21342;-59
2021/04/09 08:01:46;;;;;;;10.05;6.92;;;;;;;9.94;42.73;100425.66;1673064;85;21579;-59
2021/04/09 08:04:15;;;;;;;9.63;6.95;;;;;;;9.65;41.49;100441.27;1660077;84;21919;-58
2021/04/09 08:06:43;;;;;;;9.40;6.20;;;;;;;9.21;42.60;100433.48;1630566;87;21605;-59
2021/04/09 08:09:10;;;;;;;8.88;6.90;;;;;;;9.12;43.56;100433.61;1657434;86;21249;-60
2021/04/09 08:11:38;;;;;;;9.25;7.75;;;;;;;9.33;43.11;100430.16;1659322;85;21197;-61
2021/04/09 08:14:12;;;;;;;10.28;8.55;;;;;;;9.51;43.93;100431.81;1644534;87;21218;-60
2021/04/09 08:16:44;;;;;;;11.35;7.83;;;;;;;9.56;44.78;100439.23;1675863;85;21176;-60
2021/04/09 08:19:25;;;;;;;10.78;8.20;;;;;;;9.52;42.78;100427.20;1676593;84;21174;-58
2021/04/09 08:21:54;;;;;;;8.38;7.40;;;;;;;9.53;43.23;100432.94;1675406;85;21219;-60
2021/04/09 08:24:28;;;;;;;10.72;8.05;;;;;;;9.53;41.95;100426.94;1674936;85;21674;-58
2021/04/09 08:26:56;;;;;;;10.28;7.50;;;;;;;9.41;42.72;100419.42;1658471;85;21695;-58
2021/04/09 08:29:26;;;;;;;9.38;7.45;;;;;;;9.14;43.68;100426.59;1630994;87;21322;-58
2021/04/09 08:31:54;;;;;;;11.33;8.30;;;;;;;9.00;44.31;100428.77;1668766;85;21175;-57
2021/04/09 08:34:22;;;;;;;9.43;7.42;;;;;;;8.91;44.80;100433.79;1681120;84;21625;-58
2021/04/09 08:36:50;;;;;;;9.23;6.80;;;;;;;8.77;44.29;100432.97;1671700;85;21730;-57
2021/04/09 08:39:20;;;;;;;7.40;6.10;;;;;;;8.59;44.46;100430.44;1672050;85;21138;-57
2021/04/09 08:41:48;;;;;;;9.88;6.03;;;;;;;8.56;44.10;100429.58;1665443;85;21614;-58
2021/04/09 08:44:17;;;;;;;10.68;7.62;;;;;;;8.59;43.82;100431.80;1641690;86;21405;-58
2021/04/09 08:46:46;;;;;;;12.15;8.30;;;;;;;8.46;44.39;100438.34;1645200;86;21233;-58
2021/04/09 08:49:15;;;;;;;14.65;10.70;;;;;;;8.38;45.57;100436.00;1671601;85;21230;-59
2021/04/09 08:51:42;;;;;;;12.98;9.88;;;;;;;8.31;46.14;100434.79;1659956;86;21206;-58
2021/04/09 08:54:30;;;;;;;13.60;9.73;;;;;;;8.25;46.32;100434.89;1693652;84;21184;-58
2021/04/09 08:57:02;;;;;;;14.60;10.23;;;;;;;8.22;46.72;100435.38;1661471;86;21181;-57
2021/04/09 08:59:41;;;;;;;12.80;8.88;;;;;;;8.17;46.50;100435.26;1689854;83;21179;-58
2021/04/09 09:02:28;;;;;;;11.80;7.08;;;;;;;8.07;45.43;100438.59;1679687;83;21307;-58
2021/04/09 09:05:05;;;;;;;6.87;4.80;;;;;;;8.21;45.21;100443.22;1686569;84;21210;-58
2021/04/09 09:08:03;;;;;;;6.22;4.25;;;;;;;8.54;42.87;100437.15;1678895;83;21596;-58
2021/04/09 09:10:38;;;;;;;4.80;3.60;;;;;;;8.91;40.60;100435.67;1687506;84;21191;-58
2021/04/09 09:15:57;;;;;;;8.30;4.20;;;;;;;9.10;38.70;100434.41;1773728;79;23546;-58
2021/04/09 09:18:31;;;;;;;5.87;3.85;;;;;;;9.19;39.81;100436.16;1726074;82;21180;-60
2021/04/09 09:21:15;;;;;;;6.78;4.42;;;;;;;9.29;39.22;100433.08;1709265;82;21291;-60
2021/04/09 09:23:51;;;;;;;7.30;4.50;;;;;;;9.25;39.74;100432.45;1707255;82;21550;-60
2021/04/09 09:26:35;;;;;;;6.83;4.25;;;;;;;9.28;39.62;100439.58;1710054;83;21169;-60
2021/04/09 09:29:28;;;;;;;5.70;3.52;;;;;;;9.34;39.13;100440.50;1691696;85;21229;-61
2021/04/09 09:32:04;;;;;;;5.67;3.58;;;;;;;9.49;39.29;100440.20;1706143;83;21306;-59
2021/04/09 09:34:36;;;;;;;5.60;3.97;;;;;;;9.94;39.03;100432.45;1699306;82;21427;-60
2021/04/09 09:37:22;;;;;;;5.87;3.83;;;;;;;10.22;37.62;100438.30;1701861;83;21679;-59
2021/04/09 09:39:55;;;;;;;5.53;3.45;;;;;;;10.23;36.10;100434.52;1704067;83;21635;-60
2021/04/09 09:42:30;;;;;;;6.03;3.67;;;;;;;10.11;35.91;100440.03;1705589;83;21561;-60
2021/04/09 09:45:06;;;;;;;6.30;3.90;;;;;;;10.04;36.58;100435.84;1717842;83;21176;-60
2021/04/09 09:47:35;;;;;;;4.35;2.85;;;;;;;9.90;34.86;100434.03;1695650;83;21209;-60
2021/04/09 09:50:11;;;;;;;5.42;3.08;;;;;;;9.79;36.48;100437.67;1720450;82;21213;-60
2021/04/09 09:53:07;;;;;;;5.50;3.53;;;;;;;9.46;36.32;100439.34;1690176;83;21192;-60
2021/04/09 09:55:45;;;;;;;6.35;4.05;;;;;;;9.46;36.32;100439.34;1707934;83;21446;-60
2021/04/09 09:58:28;;;;;;;6.25;2.90;;;;;;;9.37;37.13;100440.01;1707018;83;21307;-59
2021/04/09 10:01:00;;;;;;;7.33;3.58;;;;;;;9.44;37.64;100440.14;1706056;82;21283;-60
2021/04/09 10:03:36;;;;;;;4.58;2.42;;;;;;;9.61;36.77;100437.93;1709666;83;21173;-60
2021/04/09 10:06:10;;;;;;;2.98;1.87;;;;;;;9.88;35.39;100428.83;1705468;83;21165;-60
2021/04/09 10:08:42;;;;;;;5.22;2.92;;;;;;;10.16;33.58;100423.00;1716871;82;21765;-59
2021/04/09 10:11:19;;;;;;;5.05;2.92;;;;;;;10.41;33.71;100421.95;1718909;83;21169;-58
2021/04/09 10:13:48;;;;;;;5.10;3.05;;;;;;;10.62;32.87;100417.56;1718459;83;21644;-57
2021/04/09 10:16:20;;;;;;;5.58;2.60;;;;;;;10.84;32.43;100415.63;1693458;84;21634;-57
2021/04/09 10:18:53;;;;;;;14.20;2.70;;;;;;;11.05;31.78;100419.38;1685563;82;21161;-57
2021/04/09 10:21:24;;;;;;;4.60;2.45;;;;;;;11.09;31.08;100424.02;1698097;83;21343;-58
2021/04/09 10:24:10;;;;;;;4.03;2.30;;;;;;;11.08;30.42;100417.48;1693903;84;21185;-57
2021/04/09 10:26:50;;;;;;;4.80;2.37;;;;;;;10.94;31.19;100422.54;1685991;84;21196;-58
2021/04/09 10:29:26;;;;;;;4.12;2.27;;;;;;;10.75;32.07;100421.23;1697460;82;21327;-58
2021/04/09 10:31:55;;;;;;;3.67;2.40;;;;;;;10.53;31.34;100427.24;1701500;84;21162;-58
2021/04/09 10:34:24;;;;;;;4.33;2.50;;;;;;;10.15;30.82;100428.97;1695130;84;21582;-58
2021/04/09 10:36:52;;;;;;;4.83;2.80;;;;;;;9.98;32.13;100430.89;1678908;84;21161;-58
2021/04/09 10:39:21;;;;;;;3.08;2.25;;;;;;;9.87;32.28;100429.92;1681635;84;21189;-59
2021/04/09 10:41:51;;;;;;;8.83;3.00;;;;;;;9.83;32.67;100432.02;1696467;82;21157;-57
2021/04/09 10:44:24;;;;;;;3.58;1.95;;;;;;;9.78;33.01;100427.86;1684989;84;21157;-59
2021/04/09 10:47:04;;;;;;;3.15;2.00;;;;;;;9.82;32.90;100429.84;1689075;84;21283;-59
2021/04/09 10:49:35;;;;;;;4.60;2.95;;;;;;;9.84;33.07;100423.63;1697083;84;22078;-59
2021/04/09 10:52:08;;;;;;;5.85;3.85;;;;;;;9.72;33.11;100427.50;1688888;84;21181;-59
2021/04/09 10:54:42;;;;;;;6.42;4.20;;;;;;;9.66;35.28;100425.79;1688317;84;21195;-59
2021/04/09 10:57:14;;;;;;;6.08;4.28;;;;;;;9.66;36.36;100429.87;1683282;84;21162;-59
2021/04/09 10:59:44;;;;;;;6.20;3.98;;;;;;;9.70;36.71;100427.77;1689109;84;21272;-58
2021/04/09 11:02:23;;;;;;;7.28;4.20;;;;;;;9.69;36.53;100425.28;1694436;82;21179;-59
2021/04/09 11:06:02;;;;;;;5.83;4.12;;;;;;;9.68;36.29;100423.63;1811137;79;22775;-56
2021/04/09 11:08:38;;;;;;;5.55;4.03;;;;;;;9.55;36.44;100429.42;1793944;79;21173;-57
2021/04/09 11:11:12;;;;;;;6.78;4.92;;;;;;;9.55;37.13;100421.27;1800531;78;21154;-57
2021/04/09 11:13:42;;;;;;;5.62;4.05;;;;;;;9.47;36.71;100421.14;1771527;79;21118;-57
2021/04/09 11:16:11;;;;;;;8.20;4.97;;;;;;;9.39;37.01;100425.09;1794074;79;21543;-58
2021/04/09 11:18:50;;;;;;;8.78;6.33;;;;;;;9.51;37.58;100423.66;1798646;79;21174;-57
2021/04/09 11:21:50;;;;;;;6.35;4.50;;;;;;;9.86;38.05;100416.56;1791785;79;21115;-60
2021/04/09 11:24:37;;;;;;;8.98;5.00;;;;;;;10.30;37.83;100413.38;1808902;78;21143;-59
2021/04/09 11:27:20;;;;;;;;;;;;;;;10.61;35.02;100407.74;1800412;79;21149;-60
2021/04/09 11:29:48;;;;;;;7.58;5.10;;;;;;;10.75;34.94;100410.34;1801052;79;20157;-59
2021/04/09 11:32:21;;;;;;;11.83;6.78;;;;;;;10.97;35.12;100404.31;1799249;79;21156;-59
2021/04/09 11:34:51;;;;;;;11.93;9.08;;;;;;;11.21;32.88;100406.16;1791119;78;21203;-59
2021/04/09 11:37:20;;;;;;;5.95;3.67;;;;;;;11.29;32.51;100407.88;1799429;79;21619;-59
2021/04/09 11:39:54;;;;;;;6.00;3.65;;;;;;;11.42;33.04;100401.14;1797068;79;21117;-60
2021/04/09 11:42:34;;;;;;;4.72;3.22;;;;;;;11.61;32.98;100402.39;1787794;79;21571;-59